sensor_id;sensor_type;location;lat;lon;timestamp;P1;durP1;ratioP1;P2;durP2;ratioP2
70800;SDS011;59616;52.170;5.386;2022-11-15T00:01:28;29.60;;;10.77;;
70800;SDS011;59616;52.170;5.386;2022-11-15T00:04:14;29.73;;;10.63;;
70800;SDS011;59616;52.170;5.386;2022-11-15T00:18:00;26.00;;;9.75;;
70800;SDS011;59616;52.170;5.386;2022-11-15T00:20:46;29.42;;;10.43;;
70800;SDS011;59616;52.170;5.386;2022-11-15T00:26:18;32.95;;;11.02;;
70800;SDS011;59616;52.170;5.386;2022-11-15T00:29:03;36.55;;;11.80;;
70800;SDS011;59616;52.170;5.386;2022-11-15T00:31:50;36.63;;;11.02;;
70800;SDS011;59616;52.170;5.386;2022-11-15T00:34:36;34.22;;;11.88;;
70800;SDS011;59616;52.170;5.386;2022-11-15T00:37:21;35.13;;;11.82;;
70800;SDS011;59616;52.170;5.386;2022-11-15T00:40:07;39.33;;;12.20;;
70800;SDS011;59616;52.170;5.386;2022-11-15T00:42:53;40.83;;;13.30;;
70800;SDS011;59616;52.170;5.386;2022-11-15T00:45:39;39.20;;;12.05;;
70800;SDS011;59616;52.170;5.386;2022-11-15T00:48:25;50.45;;;13.68;;
70800;SDS011;59616;52.170;5.386;2022-11-15T00:51:11;39.60;;;12.25;;
70800;SDS011;59616;52.170;5.386;2022-11-15T00:53:56;37.40;;;12.18;;
70800;SDS011;59616;52.170;5.386;2022-11-15T00:56:42;42.95;;;13.43;;
70800;SDS011;59616;52.170;5.386;2022-11-15T00:59:28;41.05;;;13.32;;
70800;SDS011;59616;52.170;5.386;2022-11-15T01:02:14;43.95;;;13.35;;
70800;SDS011;59616;52.170;5.386;2022-11-15T01:05:00;44.80;;;13.48;;
70800;SDS011;59616;52.170;5.386;2022-11-15T01:07:45;47.15;;;12.80;;
70800;SDS011;59616;52.170;5.386;2022-11-15T01:16:15;42.33;;;13.43;;
70800;SDS011;59616;52.170;5.386;2022-11-15T01:19:01;47.17;;;12.98;;
70800;SDS011;59616;52.170;5.386;2022-11-15T01:21:50;37.65;;;11.98;;
70800;SDS011;59616;52.170;5.386;2022-11-15T01:24:36;35.08;;;12.25;;
70800;SDS011;59616;52.170;5.386;2022-11-15T01:27:22;41.47;;;13.32;;
70800;SDS011;59616;52.170;5.386;2022-11-15T01:32:53;41.25;;;13.18;;
70800;SDS011;59616;52.170;5.386;2022-11-15T01:35:39;40.28;;;13.77;;
70800;SDS011;59616;52.170;5.386;2022-11-15T01:38:25;39.28;;;13.52;;
70800;SDS011;59616;52.170;5.386;2022-11-15T01:41:18;37.00;;;12.65;;
70800;SDS011;59616;52.170;5.386;2022-11-15T01:47:24;37.88;;;11.98;;
70800;SDS011;59616;52.170;5.386;2022-11-15T01:50:12;39.05;;;12.82;;
70800;SDS011;59616;52.170;5.386;2022-11-15T01:52:59;39.58;;;13.02;;
70800;SDS011;59616;52.170;5.386;2022-11-15T01:58:31;40.63;;;13.90;;
70800;SDS011;59616;52.170;5.386;2022-11-15T02:04:07;40.45;;;13.13;;
70800;SDS011;59616;52.170;5.386;2022-11-15T02:06:55;41.38;;;13.40;;
70800;SDS011;59616;52.170;5.386;2022-11-15T02:12:27;42.38;;;13.95;;
70800;SDS011;59616;52.170;5.386;2022-11-15T02:15:12;37.28;;;13.52;;
70800;SDS011;59616;52.170;5.386;2022-11-15T02:20:58;38.35;;;13.30;;
70800;SDS011;59616;52.170;5.386;2022-11-15T02:23:56;39.72;;;14.30;;
70800;SDS011;59616;52.170;5.386;2022-11-15T02:26:55;40.65;;;13.52;;
70800;SDS011;59616;52.170;5.386;2022-11-15T02:32:43;34.47;;;13.27;;
70800;SDS011;59616;52.170;5.386;2022-11-15T02:38:29;42.83;;;13.35;;
70800;SDS011;59616;52.170;5.386;2022-11-15T02:41:24;39.42;;;14.23;;
70800;SDS011;59616;52.170;5.386;2022-11-15T02:46:58;42.10;;;13.85;;
70800;SDS011;59616;52.170;5.386;2022-11-15T02:50:05;41.58;;;13.73;;
70800;SDS011;59616;52.170;5.386;2022-11-15T02:52:52;39.47;;;13.18;;
70800;SDS011;59616;52.170;5.386;2022-11-15T02:55:41;38.95;;;13.27;;
70800;SDS011;59616;52.170;5.386;2022-11-15T03:04:37;38.33;;;13.93;;
70800;SDS011;59616;52.170;5.386;2022-11-15T03:07:39;35.45;;;13.30;;
70800;SDS011;59616;52.170;5.386;2022-11-15T03:22:15;39.30;;;14.63;;
70800;SDS011;59616;52.170;5.386;2022-11-15T03:25:04;37.78;;;13.45;;
70800;SDS011;59616;52.170;5.386;2022-11-15T03:27:51;39.20;;;13.57;;
70800;SDS011;59616;52.170;5.386;2022-11-15T03:30:37;36.85;;;14.13;;
70800;SDS011;59616;52.170;5.386;2022-11-15T03:33:24;35.20;;;12.63;;
70800;SDS011;59616;52.170;5.386;2022-11-15T03:36:11;40.40;;;14.40;;
70800;SDS011;59616;52.170;5.386;2022-11-15T03:38:58;39.67;;;13.75;;
70800;SDS011;59616;52.170;5.386;2022-11-15T03:41:53;40.50;;;12.90;;
70800;SDS011;59616;52.170;5.386;2022-11-15T03:47:32;40.60;;;13.00;;
70800;SDS011;59616;52.170;5.386;2022-11-15T03:50:20;36.28;;;13.65;;
70800;SDS011;59616;52.170;5.386;2022-11-15T03:53:07;37.10;;;12.85;;
70800;SDS011;59616;52.170;5.386;2022-11-15T03:55:53;34.63;;;12.63;;
70800;SDS011;59616;52.170;5.386;2022-11-15T03:58:39;37.35;;;13.43;;
70800;SDS011;59616;52.170;5.386;2022-11-15T04:04:10;39.17;;;12.93;;
70800;SDS011;59616;52.170;5.386;2022-11-15T04:12:45;34.03;;;13.13;;
70800;SDS011;59616;52.170;5.386;2022-11-15T04:15:32;40.05;;;13.27;;
70800;SDS011;59616;52.170;5.386;2022-11-15T04:18:18;32.53;;;12.23;;
70800;SDS011;59616;52.170;5.386;2022-11-15T04:21:03;37.92;;;13.60;;
70800;SDS011;59616;52.170;5.386;2022-11-15T04:24:08;35.85;;;12.30;;
70800;SDS011;59616;52.170;5.386;2022-11-15T04:26:56;34.00;;;12.98;;
70800;SDS011;59616;52.170;5.386;2022-11-15T04:32:27;34.05;;;12.32;;
70800;SDS011;59616;52.170;5.386;2022-11-15T04:35:13;33.22;;;13.05;;
70800;SDS011;59616;52.170;5.386;2022-11-15T04:37:59;34.78;;;12.82;;
70800;SDS011;59616;52.170;5.386;2022-11-15T04:40:45;34.28;;;12.50;;
70800;SDS011;59616;52.170;5.386;2022-11-15T04:43:30;33.50;;;12.85;;
70800;SDS011;59616;52.170;5.386;2022-11-15T04:46:17;33.05;;;12.27;;
70800;SDS011;59616;52.170;5.386;2022-11-15T04:51:47;31.83;;;11.45;;
70800;SDS011;59616;52.170;5.386;2022-11-15T04:57:18;35.13;;;12.95;;
70800;SDS011;59616;52.170;5.386;2022-11-15T05:02:50;30.02;;;11.05;;
70800;SDS011;59616;52.170;5.386;2022-11-15T05:05:54;26.33;;;10.82;;
70800;SDS011;59616;52.170;5.386;2022-11-15T05:08:40;32.17;;;12.38;;
70800;SDS011;59616;52.170;5.386;2022-11-15T05:14:14;34.45;;;12.35;;
70800;SDS011;59616;52.170;5.386;2022-11-15T05:17:00;29.55;;;11.32;;
70800;SDS011;59616;52.170;5.386;2022-11-15T05:19:45;28.58;;;11.02;;
70800;SDS011;59616;52.170;5.386;2022-11-15T05:25:16;28.67;;;11.48;;
70800;SDS011;59616;52.170;5.386;2022-11-15T05:28:03;27.77;;;11.85;;
70800;SDS011;59616;52.170;5.386;2022-11-15T05:30:49;26.65;;;10.70;;
70800;SDS011;59616;52.170;5.386;2022-11-15T05:33:38;26.50;;;11.00;;
70800;SDS011;59616;52.170;5.386;2022-11-15T05:36:34;32.88;;;11.95;;
70800;SDS011;59616;52.170;5.386;2022-11-15T05:39:21;30.75;;;11.55;;
70800;SDS011;59616;52.170;5.386;2022-11-15T05:42:11;30.52;;;11.43;;
70800;SDS011;59616;52.170;5.386;2022-11-15T05:44:57;27.98;;;11.05;;
70800;SDS011;59616;52.170;5.386;2022-11-15T05:47:44;28.52;;;11.73;;
70800;SDS011;59616;52.170;5.386;2022-11-15T05:53:16;24.20;;;11.23;;
70800;SDS011;59616;52.170;5.386;2022-11-15T05:56:03;25.00;;;11.07;;
70800;SDS011;59616;52.170;5.386;2022-11-15T05:58:48;28.10;;;11.35;;
70800;SDS011;59616;52.170;5.386;2022-11-15T06:01:39;28.55;;;11.75;;
70800;SDS011;59616;52.170;5.386;2022-11-15T06:04:25;28.40;;;11.10;;
70800;SDS011;59616;52.170;5.386;2022-11-15T06:07:11;28.88;;;11.63;;
70800;SDS011;59616;52.170;5.386;2022-11-15T06:12:42;28.17;;;10.70;;
70800;SDS011;59616;52.170;5.386;2022-11-15T06:18:13;29.45;;;11.38;;
70800;SDS011;59616;52.170;5.386;2022-11-15T06:20:59;25.15;;;10.70;;
70800;SDS011;59616;52.170;5.386;2022-11-15T06:26:30;30.95;;;11.52;;
70800;SDS011;59616;52.170;5.386;2022-11-15T06:32:01;32.60;;;11.80;;
70800;SDS011;59616;52.170;5.386;2022-11-15T06:34:46;31.80;;;11.80;;
70800;SDS011;59616;52.170;5.386;2022-11-15T06:37:33;31.65;;;12.52;;
70800;SDS011;59616;52.170;5.386;2022-11-15T06:40:18;26.40;;;11.20;;
70800;SDS011;59616;52.170;5.386;2022-11-15T06:43:04;30.13;;;11.43;;
70800;SDS011;59616;52.170;5.386;2022-11-15T06:45:50;26.83;;;10.82;;
70800;SDS011;59616;52.170;5.386;2022-11-15T06:51:22;24.02;;;10.32;;
70800;SDS011;59616;52.170;5.386;2022-11-15T06:54:07;31.25;;;11.38;;
70800;SDS011;59616;52.170;5.386;2022-11-15T06:59:38;27.52;;;11.02;;
70800;SDS011;59616;52.170;5.386;2022-11-15T07:02:24;29.27;;;11.23;;
70800;SDS011;59616;52.170;5.386;2022-11-15T07:05:11;31.23;;;12.73;;
70800;SDS011;59616;52.170;5.386;2022-11-15T07:07:57;32.60;;;11.00;;
70800;SDS011;59616;52.170;5.386;2022-11-15T07:13:28;33.03;;;11.25;;
70800;SDS011;59616;52.170;5.386;2022-11-15T07:16:18;33.75;;;12.38;;
70800;SDS011;59616;52.170;5.386;2022-11-15T07:21:49;27.90;;;10.40;;
70800;SDS011;59616;52.170;5.386;2022-11-15T07:27:21;27.40;;;11.02;;
70800;SDS011;59616;52.170;5.386;2022-11-15T07:30:07;27.55;;;10.90;;
70800;SDS011;59616;52.170;5.386;2022-11-15T07:32:56;27.13;;;11.13;;
70800;SDS011;59616;52.170;5.386;2022-11-15T07:35:42;27.52;;;11.00;;
70800;SDS011;59616;52.170;5.386;2022-11-15T07:41:13;28.35;;;10.38;;
70800;SDS011;59616;52.170;5.386;2022-11-15T07:43:59;28.00;;;10.65;;
70800;SDS011;59616;52.170;5.386;2022-11-15T07:46:46;26.38;;;10.00;;
70800;SDS011;59616;52.170;5.386;2022-11-15T07:52:16;25.98;;;9.95;;
70800;SDS011;59616;52.170;5.386;2022-11-15T07:57:48;27.20;;;10.15;;
70800;SDS011;59616;52.170;5.386;2022-11-15T08:00:34;23.75;;;9.50;;
70800;SDS011;59616;52.170;5.386;2022-11-15T08:03:19;25.10;;;10.15;;
70800;SDS011;59616;52.170;5.386;2022-11-15T08:08:50;29.67;;;9.90;;
70800;SDS011;59616;52.170;5.386;2022-11-15T08:14:22;22.42;;;9.30;;
70800;SDS011;59616;52.170;5.386;2022-11-15T08:19:52;25.92;;;9.43;;
70800;SDS011;59616;52.170;5.386;2022-11-15T08:22:38;26.13;;;9.13;;
70800;SDS011;59616;52.170;5.386;2022-11-15T08:28:11;22.73;;;9.00;;
70800;SDS011;59616;52.170;5.386;2022-11-15T08:30:57;24.98;;;9.35;;
70800;SDS011;59616;52.170;5.386;2022-11-15T08:36:28;22.02;;;8.32;;
70800;SDS011;59616;52.170;5.386;2022-11-15T08:39:25;23.70;;;9.38;;
70800;SDS011;59616;52.170;5.386;2022-11-15T08:42:10;22.15;;;8.43;;
70800;SDS011;59616;52.170;5.386;2022-11-15T08:45:03;22.50;;;9.52;;
70800;SDS011;59616;52.170;5.386;2022-11-15T08:47:49;22.27;;;8.18;;
70800;SDS011;59616;52.170;5.386;2022-11-15T08:50:38;21.83;;;7.70;;
70800;SDS011;59616;52.170;5.386;2022-11-15T08:53:24;20.98;;;7.93;;
70800;SDS011;59616;52.170;5.386;2022-11-15T08:56:11;19.15;;;8.25;;
70800;SDS011;59616;52.170;5.386;2022-11-15T08:58:57;18.17;;;8.45;;
70800;SDS011;59616;52.170;5.386;2022-11-15T09:01:43;19.70;;;7.93;;
70800;SDS011;59616;52.170;5.386;2022-11-15T09:04:29;19.33;;;8.10;;
70800;SDS011;59616;52.170;5.386;2022-11-15T09:09:59;25.27;;;8.98;;
70800;SDS011;59616;52.170;5.386;2022-11-15T09:12:45;26.90;;;9.23;;
70800;SDS011;59616;52.170;5.386;2022-11-15T09:15:33;19.80;;;8.55;;
70800;SDS011;59616;52.170;5.386;2022-11-15T09:18:18;18.00;;;8.60;;
70800;SDS011;59616;52.170;5.386;2022-11-15T09:21:07;22.17;;;8.32;;
70800;SDS011;59616;52.170;5.386;2022-11-15T09:23:52;20.30;;;8.20;;
70800;SDS011;59616;52.170;5.386;2022-11-15T09:26:39;20.25;;;8.50;;
70800;SDS011;59616;52.170;5.386;2022-11-15T09:29:24;20.25;;;8.27;;
70800;SDS011;59616;52.170;5.386;2022-11-15T09:32:10;19.23;;;8.32;;
70800;SDS011;59616;52.170;5.386;2022-11-15T09:34:56;21.63;;;8.82;;
70800;SDS011;59616;52.170;5.386;2022-11-15T09:37:42;21.17;;;7.25;;
70800;SDS011;59616;52.170;5.386;2022-11-15T09:40:29;19.70;;;8.30;;
70800;SDS011;59616;52.170;5.386;2022-11-15T09:48:48;16.30;;;6.65;;
70800;SDS011;59616;52.170;5.386;2022-11-15T09:51:39;15.07;;;6.20;;
70800;SDS011;59616;52.170;5.386;2022-11-15T09:59:55;14.27;;;6.07;;
70800;SDS011;59616;52.170;5.386;2022-11-15T10:02:49;13.07;;;5.45;;
70800;SDS011;59616;52.170;5.386;2022-11-15T10:05:20;14.63;;;5.63;;
70800;SDS011;59616;52.170;5.386;2022-11-15T10:08:02;12.00;;;4.70;;
70800;SDS011;59616;52.170;5.386;2022-11-15T10:10:34;14.02;;;5.88;;
70800;SDS011;59616;52.170;5.386;2022-11-15T10:13:02;12.25;;;5.18;;
70800;SDS011;59616;52.170;5.386;2022-11-15T10:15:30;10.93;;;4.75;;
70800;SDS011;59616;52.170;5.386;2022-11-15T10:20:48;11.48;;;4.72;;
70800;SDS011;59616;52.170;5.386;2022-11-15T10:23:19;12.70;;;4.80;;
70800;SDS011;59616;52.170;5.386;2022-11-15T10:25:48;12.75;;;4.10;;
70800;SDS011;59616;52.170;5.386;2022-11-15T10:28:21;11.55;;;4.43;;
70800;SDS011;59616;52.170;5.386;2022-11-15T10:30:50;13.25;;;4.13;;
70800;SDS011;59616;52.170;5.386;2022-11-15T10:49:15;7.47;;;2.60;;
70800;SDS011;59616;52.170;5.386;2022-11-15T10:51:47;9.20;;;3.22;;
70800;SDS011;59616;52.170;5.386;2022-11-15T10:54:36;10.13;;;3.20;;
70800;SDS011;59616;52.170;5.386;2022-11-15T10:57:05;6.63;;;2.58;;
70800;SDS011;59616;52.170;5.386;2022-11-15T10:59:33;10.80;;;3.03;;
70800;SDS011;59616;52.170;5.386;2022-11-15T11:05:02;9.38;;;3.10;;
70800;SDS011;59616;52.170;5.386;2022-11-15T11:07:31;11.32;;;2.90;;
70800;SDS011;59616;52.170;5.386;2022-11-15T11:10:03;7.63;;;2.80;;
70800;SDS011;59616;52.170;5.386;2022-11-15T11:12:51;9.02;;;2.97;;
70800;SDS011;59616;52.170;5.386;2022-11-15T11:15:18;8.18;;;2.78;;
70800;SDS011;59616;52.170;5.386;2022-11-15T11:17:57;9.70;;;3.28;;
70800;SDS011;59616;52.170;5.386;2022-11-15T11:23:01;9.88;;;2.75;;
70800;SDS011;59616;52.170;5.386;2022-11-15T11:25:36;10.35;;;3.03;;
70800;SDS011;59616;52.170;5.386;2022-11-15T11:33:41;8.95;;;2.78;;
70800;SDS011;59616;52.170;5.386;2022-11-15T11:36:18;8.25;;;2.58;;
70800;SDS011;59616;52.170;5.386;2022-11-15T11:38:50;6.65;;;2.50;;
70800;SDS011;59616;52.170;5.386;2022-11-15T11:41:27;10.48;;;2.80;;
70800;SDS011;59616;52.170;5.386;2022-11-15T11:44:18;7.13;;;2.20;;
70800;SDS011;59616;52.170;5.386;2022-11-15T11:54:25;8.02;;;2.70;;
70800;SDS011;59616;52.170;5.386;2022-11-15T11:56:56;8.95;;;2.40;;
70800;SDS011;59616;52.170;5.386;2022-11-15T11:59:28;6.72;;;1.80;;
70800;SDS011;59616;52.170;5.386;2022-11-15T12:01:57;5.70;;;1.80;;
70800;SDS011;59616;52.170;5.386;2022-11-15T12:09:36;5.72;;;1.65;;
70800;SDS011;59616;52.170;5.386;2022-11-15T12:12:11;5.40;;;2.53;;
70800;SDS011;59616;52.170;5.386;2022-11-15T12:17:28;6.22;;;1.77;;
70800;SDS011;59616;52.170;5.386;2022-11-15T12:19:59;4.55;;;1.33;;
70800;SDS011;59616;52.170;5.386;2022-11-15T12:25:19;5.18;;;1.30;;
70800;SDS011;59616;52.170;5.386;2022-11-15T12:27:49;5.20;;;1.15;;
70800;SDS011;59616;52.170;5.386;2022-11-15T12:30:18;5.05;;;1.40;;
70800;SDS011;59616;52.170;5.386;2022-11-15T12:32:59;6.95;;;1.35;;
70800;SDS011;59616;52.170;5.386;2022-11-15T12:35:32;4.90;;;1.27;;
70800;SDS011;59616;52.170;5.386;2022-11-15T12:38:01;4.88;;;1.35;;
70800;SDS011;59616;52.170;5.386;2022-11-15T12:40:29;3.80;;;1.20;;
70800;SDS011;59616;52.170;5.386;2022-11-15T12:43:04;6.72;;;1.10;;
70800;SDS011;59616;52.170;5.386;2022-11-15T12:45:33;3.10;;;1.20;;
70800;SDS011;59616;52.170;5.386;2022-11-15T13:04:08;7.70;;;1.50;;
70800;SDS011;59616;52.170;5.386;2022-11-15T13:06:42;4.90;;;1.15;;
70800;SDS011;59616;52.170;5.386;2022-11-15T13:11:59;3.20;;;1.13;;
70800;SDS011;59616;52.170;5.386;2022-11-15T13:22:25;6.95;;;1.50;;
70800;SDS011;59616;52.170;5.386;2022-11-15T13:31:00;6.20;;;1.50;;
70800;SDS011;59616;52.170;5.386;2022-11-15T13:33:32;5.47;;;1.50;;
70800;SDS011;59616;52.170;5.386;2022-11-15T13:36:23;5.07;;;1.60;;
70800;SDS011;59616;52.170;5.386;2022-11-15T13:38:56;5.50;;;1.55;;
70800;SDS011;59616;52.170;5.386;2022-11-15T13:41:25;6.32;;;1.65;;
70800;SDS011;59616;52.170;5.386;2022-11-15T13:43:53;5.57;;;1.50;;
70800;SDS011;59616;52.170;5.386;2022-11-15T13:46:22;5.97;;;1.58;;
70800;SDS011;59616;52.170;5.386;2022-11-15T13:48:53;7.28;;;1.80;;
70800;SDS011;59616;52.170;5.386;2022-11-15T13:51:24;5.30;;;1.40;;
70800;SDS011;59616;52.170;5.386;2022-11-15T13:56:42;5.55;;;1.70;;
70800;SDS011;59616;52.170;5.386;2022-11-15T13:59:14;6.10;;;1.58;;
70800;SDS011;59616;52.170;5.386;2022-11-15T14:01:54;5.20;;;1.33;;
70800;SDS011;59616;52.170;5.386;2022-11-15T14:04:22;4.32;;;1.42;;
70800;SDS011;59616;52.170;5.386;2022-11-15T14:06:52;8.10;;;1.80;;
70800;SDS011;59616;52.170;5.386;2022-11-15T14:09:30;7.55;;;1.70;;
70800;SDS011;59616;52.170;5.386;2022-11-15T14:11:59;7.15;;;1.90;;
70800;SDS011;59616;52.170;5.386;2022-11-15T14:14:27;5.90;;;1.70;;
70800;SDS011;59616;52.170;5.386;2022-11-15T14:16:55;6.60;;;1.67;;
70800;SDS011;59616;52.170;5.386;2022-11-15T14:27:22;4.43;;;1.35;;
70800;SDS011;59616;52.170;5.386;2022-11-15T14:29:50;8.68;;;1.42;;
70800;SDS011;59616;52.170;5.386;2022-11-15T14:33:00;4.40;;;1.38;;
70800;SDS011;59616;52.170;5.386;2022-11-15T14:35:11;4.93;;;1.60;;
70800;SDS011;59616;52.170;5.386;2022-11-15T14:37:43;7.47;;;1.88;;
70800;SDS011;59616;52.170;5.386;2022-11-15T14:40:17;7.05;;;1.80;;
70800;SDS011;59616;52.170;5.386;2022-11-15T14:42:45;6.43;;;1.83;;
70800;SDS011;59616;52.170;5.386;2022-11-15T14:45:21;6.90;;;1.58;;
70800;SDS011;59616;52.170;5.386;2022-11-15T14:47:49;5.50;;;2.00;;
70800;SDS011;59616;52.170;5.386;2022-11-15T14:50:17;5.65;;;1.75;;
70800;SDS011;59616;52.170;5.386;2022-11-15T14:52:44;6.90;;;1.60;;
70800;SDS011;59616;52.170;5.386;2022-11-15T14:57:41;7.20;;;1.33;;
70800;SDS011;59616;52.170;5.386;2022-11-15T15:00:09;4.43;;;1.30;;
70800;SDS011;59616;52.170;5.386;2022-11-15T15:02:39;6.40;;;1.60;;
70800;SDS011;59616;52.170;5.386;2022-11-15T15:05:20;7.40;;;1.33;;
70800;SDS011;59616;52.170;5.386;2022-11-15T15:07:48;11.13;;;2.33;;
70800;SDS011;59616;52.170;5.386;2022-11-15T15:10:16;7.10;;;1.58;;
70800;SDS011;59616;52.170;5.386;2022-11-15T15:13:03;4.85;;;1.50;;
70800;SDS011;59616;52.170;5.386;2022-11-15T15:15:33;5.75;;;1.60;;
70800;SDS011;59616;52.170;5.386;2022-11-15T15:18:01;5.07;;;1.40;;
70800;SDS011;59616;52.170;5.386;2022-11-15T15:20:28;4.88;;;1.30;;
70800;SDS011;59616;52.170;5.386;2022-11-15T15:22:56;6.40;;;1.50;;
70800;SDS011;59616;52.170;5.386;2022-11-15T15:25:24;7.05;;;1.30;;
70800;SDS011;59616;52.170;5.386;2022-11-15T15:27:53;6.28;;;1.73;;
70800;SDS011;59616;52.170;5.386;2022-11-15T15:30:21;4.88;;;1.23;;
70800;SDS011;59616;52.170;5.386;2022-11-15T15:32:49;10.27;;;1.42;;
70800;SDS011;59616;52.170;5.386;2022-11-15T15:35:16;5.60;;;1.25;;
70800;SDS011;59616;52.170;5.386;2022-11-15T15:37:44;5.88;;;1.35;;
70800;SDS011;59616;52.170;5.386;2022-11-15T15:42:42;5.68;;;1.58;;
70800;SDS011;59616;52.170;5.386;2022-11-15T15:45:09;5.22;;;1.27;;
70800;SDS011;59616;52.170;5.386;2022-11-15T15:47:37;5.55;;;1.33;;
70800;SDS011;59616;52.170;5.386;2022-11-15T15:50:11;3.28;;;1.10;;
70800;SDS011;59616;52.170;5.386;2022-11-15T15:52:41;7.68;;;1.50;;
70800;SDS011;59616;52.170;5.386;2022-11-15T15:55:08;4.28;;;1.33;;
70800;SDS011;59616;52.170;5.386;2022-11-15T15:57:36;5.25;;;1.25;;
70800;SDS011;59616;52.170;5.386;2022-11-15T16:00:04;5.68;;;1.33;;
70800;SDS011;59616;52.170;5.386;2022-11-15T16:02:37;4.72;;;1.13;;
70800;SDS011;59616;52.170;5.386;2022-11-15T16:05:06;4.13;;;1.50;;
70800;SDS011;59616;52.170;5.386;2022-11-15T16:07:33;4.22;;;1.20;;
70800;SDS011;59616;52.170;5.386;2022-11-15T16:10:00;6.95;;;1.90;;
70800;SDS011;59616;52.170;5.386;2022-11-15T16:12:28;3.42;;;1.27;;
70800;SDS011;59616;52.170;5.386;2022-11-15T16:14:56;4.32;;;1.30;;
70800;SDS011;59616;52.170;5.386;2022-11-15T16:17:24;4.68;;;1.38;;
70800;SDS011;59616;52.170;5.386;2022-11-15T16:19:59;4.18;;;1.30;;
70800;SDS011;59616;52.170;5.386;2022-11-15T16:22:26;6.95;;;1.38;;
70800;SDS011;59616;52.170;5.386;2022-11-15T16:24:55;6.55;;;1.50;;
70800;SDS011;59616;52.170;5.386;2022-11-15T16:27:22;5.78;;;1.40;;
70800;SDS011;59616;52.170;5.386;2022-11-15T16:29:49;4.50;;;1.23;;
70800;SDS011;59616;52.170;5.386;2022-11-15T16:32:17;4.45;;;1.30;;
70800;SDS011;59616;52.170;5.386;2022-11-15T16:34:44;5.65;;;1.50;;
70800;SDS011;59616;52.170;5.386;2022-11-15T16:37:23;6.43;;;1.35;;
70800;SDS011;59616;52.170;5.386;2022-11-15T16:39:51;6.68;;;1.55;;
70800;SDS011;59616;52.170;5.386;2022-11-15T16:42:25;7.95;;;1.45;;
70800;SDS011;59616;52.170;5.386;2022-11-15T16:44:52;3.22;;;1.38;;
70800;SDS011;59616;52.170;5.386;2022-11-15T16:47:19;6.43;;;1.80;;
70800;SDS011;59616;52.170;5.386;2022-11-15T16:49:46;4.63;;;1.70;;
70800;SDS011;59616;52.170;5.386;2022-11-15T16:52:13;7.88;;;1.70;;
70800;SDS011;59616;52.170;5.386;2022-11-15T16:54:46;5.53;;;1.50;;
70800;SDS011;59616;52.170;5.386;2022-11-15T16:57:13;4.25;;;1.50;;
70800;SDS011;59616;52.170;5.386;2022-11-15T16:59:41;5.53;;;1.73;;
70800;SDS011;59616;52.170;5.386;2022-11-15T17:02:12;6.75;;;1.67;;
70800;SDS011;59616;52.170;5.386;2022-11-15T17:04:39;8.38;;;1.73;;
70800;SDS011;59616;52.170;5.386;2022-11-15T17:07:06;6.03;;;1.88;;
70800;SDS011;59616;52.170;5.386;2022-11-15T17:09:34;5.03;;;1.67;;
70800;SDS011;59616;52.170;5.386;2022-11-15T17:12:01;6.57;;;1.92;;
70800;SDS011;59616;52.170;5.386;2022-11-15T17:14:28;7.15;;;1.85;;
70800;SDS011;59616;52.170;5.386;2022-11-15T17:16:55;7.35;;;1.55;;
70800;SDS011;59616;52.170;5.386;2022-11-15T17:19:22;13.18;;;2.15;;
70800;SDS011;59616;52.170;5.386;2022-11-15T17:21:49;7.50;;;1.80;;
70800;SDS011;59616;52.170;5.386;2022-11-15T17:24:16;5.55;;;1.75;;
70800;SDS011;59616;52.170;5.386;2022-11-15T17:26:45;5.35;;;1.60;;
70800;SDS011;59616;52.170;5.386;2022-11-15T17:29:13;5.72;;;1.45;;
70800;SDS011;59616;52.170;5.386;2022-11-15T17:31:40;5.55;;;1.90;;
70800;SDS011;59616;52.170;5.386;2022-11-15T17:34:07;5.65;;;1.52;;
70800;SDS011;59616;52.170;5.386;2022-11-15T17:36:34;5.25;;;1.55;;
70800;SDS011;59616;52.170;5.386;2022-11-15T17:39:02;5.43;;;1.55;;
70800;SDS011;59616;52.170;5.386;2022-11-15T17:41:29;5.70;;;1.90;;
70800;SDS011;59616;52.170;5.386;2022-11-15T17:43:57;6.90;;;1.77;;
70800;SDS011;59616;52.170;5.386;2022-11-15T17:46:25;9.07;;;2.30;;
70800;SDS011;59616;52.170;5.386;2022-11-15T17:48:53;6.32;;;2.00;;
70800;SDS011;59616;52.170;5.386;2022-11-15T17:51:20;6.18;;;1.90;;
70800;SDS011;59616;52.170;5.386;2022-11-15T17:53:49;6.38;;;2.03;;
70800;SDS011;59616;52.170;5.386;2022-11-15T17:56:18;7.85;;;2.05;;
70800;SDS011;59616;52.170;5.386;2022-11-15T17:58:49;8.02;;;2.10;;
70800;SDS011;59616;52.170;5.386;2022-11-15T18:01:22;5.43;;;1.95;;
70800;SDS011;59616;52.170;5.386;2022-11-15T18:03:50;6.00;;;2.22;;
70800;SDS011;59616;52.170;5.386;2022-11-15T18:06:18;9.23;;;2.15;;
70800;SDS011;59616;52.170;5.386;2022-11-15T18:08:46;7.38;;;2.30;;
70800;SDS011;59616;52.170;5.386;2022-11-15T18:11:14;6.65;;;2.33;;
70800;SDS011;59616;52.170;5.386;2022-11-15T18:13:42;8.90;;;2.47;;
70800;SDS011;59616;52.170;5.386;2022-11-15T18:16:18;7.35;;;2.42;;
70800;SDS011;59616;52.170;5.386;2022-11-15T18:18:45;8.23;;;2.63;;
70800;SDS011;59616;52.170;5.386;2022-11-15T18:21:16;8.25;;;2.65;;
70800;SDS011;59616;52.170;5.386;2022-11-15T18:23:44;7.88;;;2.92;;
70800;SDS011;59616;52.170;5.386;2022-11-15T18:26:12;11.35;;;3.20;;
70800;SDS011;59616;52.170;5.386;2022-11-15T18:28:40;8.00;;;3.13;;
70800;SDS011;59616;52.170;5.386;2022-11-15T18:31:12;7.90;;;2.78;;
70800;SDS011;59616;52.170;5.386;2022-11-15T18:33:40;10.75;;;3.00;;
70800;SDS011;59616;52.170;5.386;2022-11-15T18:36:09;8.57;;;2.90;;
70800;SDS011;59616;52.170;5.386;2022-11-15T18:38:37;8.23;;;2.83;;
70800;SDS011;59616;52.170;5.386;2022-11-15T18:41:05;9.25;;;3.03;;
70800;SDS011;59616;52.170;5.386;2022-11-15T18:43:32;10.10;;;3.15;;
70800;SDS011;59616;52.170;5.386;2022-11-15T18:46:03;11.15;;;3.30;;
70800;SDS011;59616;52.170;5.386;2022-11-15T18:48:31;10.93;;;3.15;;
70800;SDS011;59616;52.170;5.386;2022-11-15T18:51:03;8.93;;;2.90;;
70800;SDS011;59616;52.170;5.386;2022-11-15T18:53:30;8.07;;;2.95;;
70800;SDS011;59616;52.170;5.386;2022-11-15T18:56:02;6.97;;;2.80;;
70800;SDS011;59616;52.170;5.386;2022-11-15T18:58:33;8.85;;;3.40;;
70800;SDS011;59616;52.170;5.386;2022-11-15T19:01:01;9.20;;;2.97;;
70800;SDS011;59616;52.170;5.386;2022-11-15T19:03:36;11.05;;;3.30;;
70800;SDS011;59616;52.170;5.386;2022-11-15T19:06:05;9.40;;;3.03;;
70800;SDS011;59616;52.170;5.386;2022-11-15T19:08:32;10.32;;;3.58;;
70800;SDS011;59616;52.170;5.386;2022-11-15T19:11:01;9.05;;;3.20;;
70800;SDS011;59616;52.170;5.386;2022-11-15T19:13:29;13.07;;;4.05;;
70800;SDS011;59616;52.170;5.386;2022-11-15T19:15:57;9.90;;;3.40;;
70800;SDS011;59616;52.170;5.386;2022-11-15T19:18:25;9.13;;;3.47;;
70800;SDS011;59616;52.170;5.386;2022-11-15T19:20:52;11.25;;;3.78;;
70800;SDS011;59616;52.170;5.386;2022-11-15T19:23:21;10.02;;;3.42;;
70800;SDS011;59616;52.170;5.386;2022-11-15T19:25:52;11.02;;;3.40;;
70800;SDS011;59616;52.170;5.386;2022-11-15T19:28:20;9.77;;;3.20;;
70800;SDS011;59616;52.170;5.386;2022-11-15T19:30:47;9.52;;;3.70;;
70800;SDS011;59616;52.170;5.386;2022-11-15T19:33:14;10.95;;;4.90;;
70800;SDS011;59616;52.170;5.386;2022-11-15T19:35:41;11.07;;;3.78;;
70800;SDS011;59616;52.170;5.386;2022-11-15T19:38:08;10.88;;;3.95;;
70800;SDS011;59616;52.170;5.386;2022-11-15T19:40:35;9.38;;;3.80;;
70800;SDS011;59616;52.170;5.386;2022-11-15T19:43:03;10.50;;;4.10;;
70800;SDS011;59616;52.170;5.386;2022-11-15T19:45:30;10.63;;;4.15;;
70800;SDS011;59616;52.170;5.386;2022-11-15T19:47:57;11.32;;;4.55;;
70800;SDS011;59616;52.170;5.386;2022-11-15T19:50:24;9.77;;;4.15;;